Terminal Aerodrome Forecast
Issued by NWS Cleveland, OH

Home | Current Version | Previous Version | Graphics & Text | Print | Product List | Glossary On
Versions: 1 2 3 4 5 6 7 8 9 10 11 12 13 14 15 16 17 18 19 20 21 22 23 24 25 26
000
FTUS41 KCLE 191100
TAFYNG
TAF
KYNG 191121Z 1912/2012 VRB03KT P6SM SCT250
     FM191500 18005KT P6SM SCT250
     FM192100 23008KT P6SM BKN035
      TEMPO 1922/1924 3SM TSRA OVC025CB
     FM200200 15006KT 6SM -TSRA SCT035CB OVC050
     FM200900 14004KT 4SM BR VCSH OVC025=

USA.gov is the U.S. government's official web portal to all federal, state and local government web resources and services.